Overview Statistics Trail Chart Weather Telemetry Raw packets
 

This is the latest recevied weather packets stored in our database for station/object EA4HRG-10. If no packets are shown the sender has not sent any weather packets the latest 10 day(s).

<< 4 5 6 7 8 9 10 >>
Time Temp. Humidity Pressure Rain* Wind** Luminosity Snow
1788487840 13.89° C 47% 1025.2 hPa - - - -
1788486940 13.89° C 45% 1025.2 hPa - - - -
1788486040 14.44° C 45% 1025.2 hPa - - - -
1788485140 15° C 44% 1025.1 hPa - - - -
1788484259 15° C 43% 1025 hPa - - - -
1788483339 15.56° C 41% 1024.9 hPa - - - -
1788482440 15.56° C 42% 1025.1 hPa - - - -
1788481540 15.56° C 42% 1024.9 hPa - - - -
1788480639 16.11° C 42% 1024.9 hPa - - - -
1788479739 16.11° C 40% 1024.9 hPa - - - -
1788478839 16.11° C 41% 1024.7 hPa - - - -
1788478041 16.67° C 40% 1024.4 hPa - - - -
1788477940 16.67° C 40% 1024.4 hPa - - - -
1788477039 17.22° C 39% 1024.1 hPa - - - -
1788476140 17.22° C 37% 1023.9 hPa - - - -
1788475239 17.78° C 37% 1023.6 hPa - - - -
1788474339 17.78° C 36% 1023.3 hPa - - - -
1788473440 18.33° C 35% 1023.2 hPa - - - -
1788472539 18.33° C 35% 1023.1 hPa - - - -
1788471639 18.89° C 35% 1022.9 hPa - - - -
1788470739 19.44° C 34% 1022.5 hPa - - - -
1788469891 20° C 33% 1022.3 hPa - - - -
1788469839 20° C 33% 1022.3 hPa - - - -
1788468939 20.56° C 31% 1022.2 hPa - - - -
1788468040 21.67° C 29% 1021.7 hPa - - - -

* Rain since midnight (hover to see other rain measurements)
** Current wind speed in m/s (hover to see current wind gust speed)